Weather at Phu Quoc International Airport

Public forecast

Using degrees Celsius for public forecast. Weather courtesy of forecast.io.

Current aviation weather report (METAR) for Phu Quoc International Airport

Report is more than 6 hours old.

2022/11/14 15:30 (retrieved 2 years ago)

VVPQ 141530Z 00000KT 9999 SCT015 SCT040 25/24 Q1011 NOSIG

Aviation forecast (TAF) for Phu Quoc International Airport

Forecast is more than 12 hours old.

2023/02/22 18:00 Correction (retrieved 1 year ago)

TAF COR VVPQ 221700Z 2218/2318 VRB03KT 9999 SCT015 SCT040 BECMG 2303/2304 09010KT